Hillsdale, New Jersey
Current Conditions -  °F | °C
As of 4:51 AM on Sunday 21 Dec 2014 (Local Time) from KTEB Reporting Station
Overcast Overcast  
Wind Chill: 26°   Ceiling: 2800
Heat Index: 31°   Visibility: 8mi
Dew Point: 25°   Wind: 5mph
Humidity: 79%   Direction: 350°N
Pressure: 30.27"   Gusts: NA
Location:  41°N, 74.04°W
Report Text: KTEB 210951Z 35004KT 8SM OVC028 M01/M04 A3027 RMK AO2 SLP251 T10061039
Loading
Personal Weather Stations






























Interactive Weather Map New forecast layout! Learn more

10-Day Weather Forecast

Advertisements
Track Severe Weather on mobile